METAR Data
IDs: Format: Raw Decoded Include TAF

Data at: 0200 UTC 24 Oct 2019

METAR for:KEST (Estherville Muni, IA, US)
Text:KEST 240152Z AUTO 33011G20KT 10SM FEW018 BKN026 BKN055 03/01 A3012 RMK AO2 SLP211 T00330006
Temperature: 3.3°C ( 38°F)
Dewpoint: 0.6°C ( 33°F) [RH = 82%]
Pressure (altimeter):30.12 inches Hg (1020.1 mb) [Sea level pressure: 1021.1 mb]
Winds:from the NNW (330 degrees) at 13 MPH (11 knots; 5.7 m/s) gusting to 23 MPH (20 knots; 10.3 m/s)
Visibility:10 or more sm (16+ km)
Ceiling:2600 feet AGL
Clouds: few clouds at 1800 feet AGL, broken clouds at 2600 feet AGL, broken clouds at 5500 feet AGL
QC Flag:automated observation with no human augmentation